Finly, Indiana
Current Conditions -  °F | °C
As of 12:53 PM on Sunday 25 Jan 2015 (Local Time) from KGEZ Reporting Station
Overcast Overcast  
Wind Chill: 35°   Ceiling: 3200
Heat Index: 39°   Visibility: 10mi
Dew Point: 34°   Wind: 6mph
Humidity: 82%   Direction: 100°E
Pressure: 29.65"   Gusts: NA
Location:  39.71°N, 85.82°W
Report Text: KGEZ 251753Z AUTO 10005KT 10SM OVC032 04/01 A2965 RMK AO2 RAE05 SLP046 P0000 60002 T00390011 10039 20022 58009
Loading
Personal Weather Stations






























Interactive Weather Map New forecast layout! Learn more

10-Day Weather Forecast

Advertisements
Track Severe Weather on mobile